Time;durP1;ratioP1;P1;durP2;ratioP2;P2;SDS_P1;SDS_P2;PMS_P1;PMS_P2;Temp;Humidity;BMP_temperature;BMP_pressure;BME280_temperature;BME280_humidity;BME280_pressure;Samples;Min_cycle;Max_cycle;Signal;HPM_P1;HPM_P2
2021/10/12 00:00:59;;;;;;;131.55;59.95;;;;;;;2.89;95.15;100283.22;1732941;82;21752;-76
2021/10/12 00:03:25;;;;;;;120.92;56.70;;;;;;;2.86;95.09;100281.94;1736563;82;21561;-76
2021/10/12 00:05:53;;;;;;;124.62;58.30;;;;;;;2.83;95.18;100284.53;1743566;82;21066;-77
2021/10/12 00:08:20;;;;;;;78.65;38.05;;;;;;;2.82;95.36;100278.91;1744045;80;21969;-74
2021/10/12 00:10:46;;;;;;;108.80;51.65;;;;;;;2.82;95.57;100277.61;1742968;80;21063;-81
2021/10/12 00:13:14;;;;;;;127.35;59.95;;;;;;;2.82;96.06;100270.66;1743885;81;21086;-81
2021/10/12 00:15:40;;;;;;;136.47;61.20;;;;;;;2.77;96.26;100262.46;1749823;80;21057;-81
2021/10/12 00:18:07;;;;;;;136.60;60.48;;;;;;;2.82;96.29;100268.51;1754978;80;21025;-81
2021/10/12 00:20:35;;;;;;;128.15;61.70;;;;;;;2.79;96.22;100267.23;1743504;80;21150;-81
2021/10/12 00:23:05;;;;;;;119.50;58.20;;;;;;;2.78;96.48;100268.08;1753534;80;21042;-81
2021/10/12 00:25:31;;;;;;;137.55;63.60;;;;;;;2.79;96.79;100259.42;1746046;80;21118;-80
2021/10/12 00:27:59;;;;;;;134.80;64.17;;;;;;;2.81;96.77;100268.09;1751811;80;21066;-80
2021/10/12 00:30:25;;;;;;;136.85;62.20;;;;;;;2.80;96.80;100262.44;1745455;80;21336;-78
2021/10/12 00:32:51;;;;;;;138.95;60.52;;;;;;;2.80;96.69;100260.70;1748588;80;21814;-77
2021/10/12 00:35:18;;;;;;;138.72;61.05;;;;;;;2.80;96.77;100258.54;1759296;80;21004;-81
2021/10/12 00:37:45;;;;;;;143.43;63.35;;;;;;;2.78;96.58;100256.38;1747277;80;21023;-80
2021/10/12 00:40:12;;;;;;;125.38;60.15;;;;;;;2.76;96.44;100253.80;1743487;82;21041;-80
2021/10/12 00:42:38;;;;;;;84.10;42.50;;;;;;;2.76;96.36;100252.50;1746426;80;21572;-79
2021/10/12 00:45:08;;;;;;;139.40;61.60;;;;;;;2.76;96.59;100251.61;1747913;82;21103;-79
2021/10/12 00:47:36;;;;;;;131.85;60.52;;;;;;;2.77;96.98;100245.56;1748090;82;21046;-81
2021/10/12 00:50:05;;;;;;;141.30;62.62;;;;;;;2.79;97.11;100249.02;1760486;80;21078;-77
2021/10/12 00:52:35;;;;;;;132.30;60.90;;;;;;;2.77;97.02;100244.26;1761471;80;21348;-79
2021/10/12 00:55:05;;;;;;;115.67;54.83;;;;;;;2.78;96.93;100242.07;1743776;80;21051;-77
2021/10/12 00:57:32;;;;;;;147.15;67.15;;;;;;;2.77;96.88;100239.05;1758764;80;21100;-78
2021/10/12 00:59:58;;;;;;;144.72;68.52;;;;;;;2.76;97.05;100231.70;1758332;80;21058;-79
2021/10/12 01:02:24;;;;;;;151.00;66.87;;;;;;;2.77;97.19;100235.16;1732379;82;21089;-81
2021/10/12 01:04:51;;;;;;;138.37;63.45;;;;;;;2.77;97.17;100232.55;1750724;80;21050;-80
2021/10/12 01:07:18;;;;;;;134.10;61.77;;;;;;;2.73;96.94;100234.28;1768371;80;21069;-79
2021/10/12 01:09:44;;;;;;;137.82;62.43;;;;;;;2.69;97.19;100233.45;1773234;80;21607;-78
2021/10/12 01:12:10;;;;;;;140.65;64.12;;;;;;;2.69;97.37;100223.05;1773588;80;21093;-78
2021/10/12 01:14:37;;;;;;;142.93;64.30;;;;;;;2.69;97.41;100224.34;1773451;80;21473;-76
2021/10/12 01:17:05;;;;;;;138.77;63.70;;;;;;;2.71;97.66;100225.62;1762420;80;21017;-78
2021/10/12 01:19:34;;;;;;;136.65;64.03;;;;;;;2.70;97.96;100228.66;1741596;80;21057;-78
2021/10/12 01:22:00;;;;;;;123.30;59.50;;;;;;;2.73;98.33;100221.28;1745197;80;21153;-79
2021/10/12 01:24:27;;;;;;;137.20;60.88;;;;;;;2.75;98.37;100222.59;1742329;80;21085;-76
2021/10/12 01:30:53;;;;;;;147.50;63.35;;;;;;;2.77;98.68;100222.15;1742702;82;21035;-77
2021/10/12 01:33:20;;;;;;;135.48;64.25;;;;;;;2.77;98.58;100213.91;1745274;80;21053;-80
2021/10/12 01:35:50;;;;;;;149.87;65.85;;;;;;;2.76;98.32;100213.91;1742967;80;22456;-80
2021/10/12 01:38:14;;;;;;;126.90;59.98;;;;;;;2.75;98.02;100211.74;1742507;80;21031;-78
2021/10/12 01:40:41;;;;;;;133.22;62.83;;;;;;;2.73;97.91;100209.58;1742908;82;21502;-80
2021/10/12 01:43:07;;;;;;;130.87;59.80;;;;;;;2.75;98.02;100210.89;1716585;83;21583;-80
2021/10/12 01:45:37;;;;;;;130.03;59.88;;;;;;;2.76;98.09;100210.89;1727048;82;21053;-77
2021/10/12 01:48:02;;;;;;;115.77;55.03;;;;;;;2.76;97.98;100199.59;1719577;82;21339;-77
2021/10/12 01:50:28;;;;;;;123.67;58.30;;;;;;;2.76;97.76;100191.80;1744302;82;21045;-77
2021/10/12 01:52:54;;;;;;;96.22;45.03;;;;;;;2.77;97.69;100200.05;1746411;82;21081;-78
2021/10/12 01:55:23;;;;;;;102.70;48.95;;;;;;;2.76;97.70;100196.59;1745224;82;21675;-77
2021/10/12 01:57:50;;;;;;;104.67;48.83;;;;;;;2.80;98.09;100199.58;1751625;80;21069;-77
2021/10/12 02:00:17;;;;;;;84.62;40.92;;;;;;;2.82;98.33;100190.48;1746183;82;21815;-79
2021/10/12 02:02:46;;;;;;;117.53;53.70;;;;;;;2.85;98.66;100191.34;1747134;80;21097;-78
2021/10/12 02:05:13;;;;;;;120.00;55.73;;;;;;;2.89;98.74;100195.63;1745730;80;21483;-77
2021/10/12 02:07:39;;;;;;;120.30;53.33;;;;;;;2.90;98.54;100190.88;1773325;80;21650;-78
2021/10/12 02:10:08;;;;;;;106.32;52.38;;;;;;;2.92;98.50;100190.84;1773220;80;21050;-78
2021/10/12 02:12:34;;;;;;;122.10;55.73;;;;;;;2.96;98.78;100186.52;1773467;80;21796;-78
2021/10/12 02:15:01;;;;;;;120.05;56.85;;;;;;;3.00;98.60;100189.09;1761213;80;21533;-78
2021/10/12 02:17:29;;;;;;;119.33;54.90;;;;;;;3.02;98.25;100183.45;1745994;82;21046;-77
2021/10/12 02:19:56;;;;;;;126.00;57.03;;;;;;;3.06;98.30;100183.86;1735582;81;21121;-79
2021/10/12 02:22:22;;;;;;;127.82;56.35;;;;;;;3.11;98.09;100184.70;1732587;81;21181;-79
2021/10/12 02:24:49;;;;;;;114.75;54.03;;;;;;;3.14;97.80;100179.46;1736130;81;22153;-79
2021/10/12 02:27:15;;;;;;;118.50;55.70;;;;;;;3.19;98.00;100173.38;1729965;81;21082;-79
2021/10/12 02:29:41;;;;;;;117.15;56.18;;;;;;;3.20;97.56;100170.77;1730424;82;21045;-79
2021/10/12 02:32:08;;;;;;;106.83;50.30;;;;;;;3.06;97.61;100138.33;1736656;80;21051;-79
2021/10/12 02:34:35;;;;;;;124.30;56.00;;;;;;;3.24;97.71;100162.48;1761693;80;21057;-77
2021/10/12 02:37:03;;;;;;;107.45;52.27;;;;;;;3.28;97.88;100161.60;1776366;80;21593;-79
2021/10/12 02:39:29;;;;;;;84.28;42.60;;;;;;;3.28;97.44;100159.00;1779179;80;21132;-78
2021/10/12 02:41:56;;;;;;;98.62;43.78;;;;;;;3.27;97.02;100157.28;1782179;80;21116;-79
2021/10/12 02:44:22;;;;;;;90.72;41.80;;;;;;;3.29;97.23;100164.62;1784009;80;20947;-77
2021/10/12 02:46:48;;;;;;;81.00;41.15;;;;;;;3.30;97.36;100153.34;1781562;80;21049;-76
2021/10/12 02:49:16;;;;;;;75.35;36.83;;;;;;;3.32;97.41;100152.91;1782970;80;21139;-77
2021/10/12 02:51:42;;;;;;;77.72;37.80;;;;;;;3.35;97.53;100154.17;1783864;80;21025;-77
2021/10/12 02:54:09;;;;;;;89.92;44.77;;;;;;;3.36;97.72;100149.41;1782955;78;20943;-79
2021/10/12 02:56:36;;;;;;;103.75;49.80;;;;;;;3.38;97.83;100139.82;1761185;80;21046;-80
2021/10/12 02:59:03;;;;;;;101.33;50.05;;;;;;;3.39;97.75;100138.96;1750559;82;21074;-81
2021/10/12 03:01:29;;;;;;;99.30;49.67;;;;;;;3.39;97.42;100142.88;1750234;81;21324;-79
2021/10/12 03:03:56;;;;;;;110.78;52.73;;;;;;;3.39;97.65;100129.85;1749050;81;21538;-79
2021/10/12 03:06:22;;;;;;;106.35;51.55;;;;;;;3.39;97.54;100133.76;1776430;80;21520;-77
2021/10/12 03:08:48;;;;;;;118.95;52.85;;;;;;;3.41;97.43;100132.45;1780277;80;21113;-78
2021/10/12 03:11:15;;;;;;;108.20;49.20;;;;;;;3.39;97.12;100128.55;1743581;82;21045;-78
2021/10/12 03:13:41;;;;;;;107.37;51.37;;;;;;;3.39;96.67;100121.19;1727502;82;21194;-73
2021/10/12 03:16:08;;;;;;;95.80;47.98;;;;;;;3.38;96.66;100124.20;1740787;80;21350;-71
2021/10/12 03:18:36;;;;;;;99.35;49.98;;;;;;;3.39;96.43;100116.83;1726419;82;21056;-73
2021/10/12 03:21:03;;;;;;;104.20;49.88;;;;;;;3.36;96.31;100117.73;1732666;82;21001;-73
2021/10/12 03:23:31;;;;;;;82.72;43.48;;;;;;;3.38;96.69;100115.09;1726472;82;21559;-74
2021/10/12 03:25:57;;;;;;;93.12;42.15;;;;;;;3.39;96.93;100115.53;1714795;82;21697;-72
2021/10/12 03:28:24;;;;;;;80.50;40.75;;;;;;;3.40;96.95;100115.95;1720153;83;21527;-72
2021/10/12 03:30:50;;;;;;;100.45;46.65;;;;;;;3.41;97.11;100116.39;1728841;82;21057;-71
2021/10/12 03:33:19;;;;;;;90.00;44.50;;;;;;;3.42;97.09;100119.41;1724197;82;21136;-72
2021/10/12 03:36:31;;;;;;;84.97;40.98;;;;;;;3.41;97.13;100116.83;1723375;83;21465;-75
2021/10/12 03:38:14;;;;;;;81.05;39.00;;;;;;;3.42;97.41;100111.59;1712560;83;21837;-72
2021/10/12 03:40:41;;;;;;;94.30;48.45;;;;;;;3.42;97.41;100116.80;1722893;83;21021;-74
2021/10/12 03:43:07;;;;;;;104.53;51.65;;;;;;;3.40;97.36;100107.28;1723232;83;21552;-71
2021/10/12 03:45:34;;;;;;;106.75;50.67;;;;;;;3.39;97.03;100110.33;1723062;83;21057;-72
2021/10/12 03:48:01;;;;;;;112.40;51.92;;;;;;;3.37;96.80;100100.36;1723249;83;21080;-72
2021/10/12 03:50:27;;;;;;;101.15;49.18;;;;;;;3.37;96.90;100105.56;1722878;83;21149;-73
2021/10/12 03:52:54;;;;;;;113.05;54.53;;;;;;;3.37;97.27;100101.66;1723396;83;21084;-76
2021/10/12 03:55:20;;;;;;;119.28;52.60;;;;;;;3.37;97.46;100100.36;1723415;83;21072;-74
2021/10/12 03:57:47;;;;;;;112.68;51.75;;;;;;;3.37;97.50;100101.66;1729859;82;21580;-72
2021/10/12 04:00:14;;;;;;;107.63;50.78;;;;;;;3.34;97.21;100095.19;1718382;82;21623;-72
2021/10/12 04:02:40;;;;;;;104.80;49.53;;;;;;;3.32;97.06;100103.45;1717578;83;21058;-74
2021/10/12 04:05:08;;;;;;;94.85;47.10;;;;;;;3.32;97.07;100102.14;1721979;82;21045;-73
2021/10/12 04:07:36;;;;;;;107.45;50.50;;;;;;;3.31;97.21;100106.91;1730252;82;21173;-72
2021/10/12 04:10:05;;;;;;;107.78;50.80;;;;;;;3.31;97.62;100105.61;1730504;82;21588;-74
2021/10/12 04:12:32;;;;;;;97.67;44.30;;;;;;;3.31;97.64;100096.50;1730149;82;21493;-72
2021/10/12 04:14:58;;;;;;;92.67;44.95;;;;;;;3.30;97.64;100096.94;1730066;82;21171;-73
2021/10/12 04:17:25;;;;;;;81.30;39.50;;;;;;;3.31;97.54;100096.08;1730272;82;21072;-74
2021/10/12 04:19:52;;;;;;;101.50;47.43;;;;;;;3.29;97.18;100091.73;1730098;82;21254;-73
2021/10/12 04:22:19;;;;;;;80.15;38.88;;;;;;;3.27;97.32;100087.01;1730147;82;21132;-73
2021/10/12 04:24:46;;;;;;;112.15;52.17;;;;;;;3.27;96.93;100090.91;1730467;82;21029;-73
2021/10/12 04:27:12;;;;;;;83.30;41.37;;;;;;;3.26;97.07;100085.27;1730399;82;22017;-73
2021/10/12 04:29:40;;;;;;;115.15;51.02;;;;;;;3.27;96.72;100081.80;1729963;82;21085;-72
2021/10/12 04:32:08;;;;;;;124.35;53.78;;;;;;;3.28;96.59;100079.61;1730627;82;21061;-73
2021/10/12 04:34:35;;;;;;;122.05;54.10;;;;;;;3.28;96.37;100077.02;1705867;82;21033;-74
2021/10/12 04:37:02;;;;;;;121.97;53.55;;;;;;;3.27;96.19;100080.06;1730208;82;21109;-72
2021/10/12 04:39:29;;;;;;;110.88;52.10;;;;;;;3.26;96.44;100078.75;1723699;82;21246;-73
2021/10/12 04:41:58;;;;;;;116.42;53.40;;;;;;;3.29;96.58;100077.42;1730756;82;21439;-74
2021/10/12 04:44:27;;;;;;;120.53;53.08;;;;;;;3.30;96.39;100073.95;1729244;82;21156;-72
2021/10/12 04:46:53;;;;;;;110.57;51.15;;;;;;;3.33;96.60;100073.92;1725160;82;21108;-73
2021/10/12 04:49:20;;;;;;;103.75;49.77;;;;;;;3.33;96.58;100064.81;1699641;82;21124;-73
2021/10/12 04:51:47;;;;;;;111.17;51.83;;;;;;;3.41;96.62;100074.73;1715317;83;21182;-73
2021/10/12 04:54:14;;;;;;;108.97;52.48;;;;;;;3.45;96.59;100068.63;1697889;84;21551;-72
2021/10/12 04:56:43;;;;;;;110.12;54.23;;;;;;;3.49;96.19;100074.66;1743595;81;20977;-75
2021/10/12 04:59:09;;;;;;;121.60;52.08;;;;;;;3.51;95.82;100074.20;1719182;82;22119;-76
2021/10/12 05:01:36;;;;;;;102.22;44.55;;;;;;;3.54;95.84;100072.45;1750866;81;21059;-76
2021/10/12 05:04:04;;;;;;;94.72;45.50;;;;;;;3.61;95.92;100076.28;1730534;82;21100;-74
2021/10/12 05:06:33;;;;;;;75.55;37.45;;;;;;;3.68;96.15;100072.73;1702436;82;21139;-80
2021/10/12 05:09:01;;;;;;;87.00;42.83;;;;;;;3.74;95.77;100076.59;1701124;82;21111;-80
2021/10/12 05:11:29;;;;;;;84.30;38.45;;;;;;;3.81;96.08;100070.44;1701142;84;21307;-76
2021/10/12 05:13:57;;;;;;;98.40;45.50;;;;;;;3.94;96.61;100079.86;1703980;84;21092;-74
2021/10/12 05:16:27;;;;;;;81.08;39.50;;;;;;;4.05;96.59;100065.83;1720108;80;21672;-74
2021/10/12 05:18:56;;;;;;;92.50;41.40;;;;;;;4.17;96.42;100065.71;1699093;83;21077;-73
2021/10/12 05:21:22;;;;;;;99.05;45.40;;;;;;;4.35;96.73;100070.70;1725043;81;21100;-74
2021/10/12 05:23:49;;;;;;;98.17;43.23;;;;;;;4.49;95.30;100059.23;1700550;82;21041;-72
2021/10/12 05:26:16;;;;;;;88.72;42.73;;;;;;;4.64;94.87;100065.52;1731801;81;21064;-73
2021/10/12 05:28:44;;;;;;;85.00;44.35;;;;;;;4.76;92.80;100062.77;1748598;81;21151;-73
2021/10/12 05:31:11;;;;;;;91.42;44.00;;;;;;;4.87;91.51;100056.06;1745558;81;21082;-73
2021/10/12 05:33:37;;;;;;;86.25;43.63;;;;;;;5.00;90.73;100065.44;1737400;81;22068;-73
2021/10/12 05:36:05;;;;;;;89.67;45.17;;;;;;;5.13;89.33;100067.43;1723493;83;21093;-73
2021/10/12 05:38:32;;;;;;;75.45;40.28;;;;;;;5.29;89.21;100066.75;1723461;82;21065;-72
2021/10/12 05:40:58;;;;;;;88.65;45.65;;;;;;;5.48;87.91;100057.30;1751760;81;21142;-75
2021/10/12 05:43:25;;;;;;;89.52;44.05;;;;;;;5.64;85.62;100059.59;1723361;83;21061;-72
2021/10/12 05:45:51;;;;;;;89.60;44.50;;;;;;;5.77;85.00;100058.06;1752396;81;21539;-74
2021/10/12 05:48:18;;;;;;;80.97;42.40;;;;;;;5.88;84.04;100047.81;1753451;81;21792;-73
2021/10/12 05:50:46;;;;;;;82.82;42.20;;;;;;;5.99;82.91;100057.25;1755004;80;21001;-72
2021/10/12 05:55:56;;;;;;;80.57;42.55;;;;;;;6.12;82.07;100050.02;1740687;81;21553;-74
2021/10/12 05:58:41;;;;;;;92.90;45.05;;;;;;;6.16;81.94;100052.98;1733633;82;21057;-74
2021/10/12 06:01:04;;;;;;;82.78;42.00;;;;;;;6.21;81.69;100049.83;1739309;81;21029;-74
2021/10/12 06:03:30;;;;;;;77.32;42.20;;;;;;;6.25;81.64;100050.19;1722747;82;21036;-75
2021/10/12 06:05:57;;;;;;;91.35;42.93;;;;;;;6.29;81.05;100050.09;1713518;83;21946;-73
2021/10/12 06:08:24;;;;;;;81.65;44.55;;;;;;;6.30;81.10;100043.09;1753083;81;21022;-72
2021/10/12 06:10:50;;;;;;;96.80;46.83;;;;;;;6.32;80.14;100046.55;1722204;82;21427;-74
2021/10/12 06:13:18;;;;;;;86.75;42.33;;;;;;;6.34;79.92;100052.61;1745433;81;21536;-71
2021/10/12 06:15:44;;;;;;;91.08;44.73;;;;;;;6.33;80.59;100055.24;1758181;80;21088;-72
2021/10/12 06:18:11;;;;;;;84.07;45.83;;;;;;;6.38;81.34;100049.05;1746056;82;21125;-74
2021/10/12 06:20:38;;;;;;;88.20;45.95;;;;;;;6.42;79.88;100052.02;1770823;80;21631;-75
2021/10/12 06:23:09;;;;;;;91.28;44.58;;;;;;;6.49;79.73;100054.05;1769259;80;21037;-73
2021/10/12 06:25:38;;;;;;;73.37;41.08;;;;;;;6.65;79.79;100048.05;1726699;82;21121;-74
2021/10/12 06:28:05;;;;;;;80.50;41.98;;;;;;;6.81;79.30;100050.72;1726182;81;21084;-76
2021/10/12 06:30:34;;;;;;;85.15;44.83;;;;;;;7.04;79.72;100042.33;1742794;81;21145;-82
2021/10/12 06:33:01;;;;;;;86.60;45.12;;;;;;;7.32;77.89;100045.13;1734485;82;21036;-80
2021/10/12 06:35:29;;;;;;;88.03;46.08;;;;;;;7.58;77.23;100046.22;1728697;82;21058;-80
2021/10/12 06:38:01;;;;;;;82.55;45.38;;;;;;;7.94;75.00;100046.15;1766040;80;21069;-79
2021/10/12 06:40:28;;;;;;;81.82;44.53;;;;;;;8.37;75.27;100037.03;1763851;80;21053;-77
2021/10/12 06:42:56;;;;;;;96.32;45.45;;;;;;;8.99;73.40;100040.84;1762560;80;21095;-77
2021/10/12 06:45:23;;;;;;;83.33;46.42;;;;;;;9.57;70.71;100043.34;1768028;80;21051;-81
2021/10/12 06:47:49;;;;;;;89.55;44.10;;;;;;;10.24;68.81;100029.55;1748773;80;21069;-78
2021/10/12 06:50:17;;;;;;;85.07;44.48;;;;;;;10.88;67.02;100029.31;1775426;80;21050;-78
2021/10/12 06:52:44;;;;;;;89.75;45.80;;;;;;;11.48;64.63;100027.73;1762103;80;21054;-82
2021/10/12 06:55:11;;;;;;;74.40;42.50;;;;;;;12.02;63.47;100029.38;1761922;80;21136;-83
2021/10/12 06:57:38;;;;;;;73.30;42.93;;;;;;;12.55;60.97;100026.53;1737319;81;21057;-79
2021/10/12 07:00:07;;;;;;;80.77;43.90;;;;;;;12.89;58.99;100025.80;1745184;81;21125;-86
2021/10/12 07:02:33;;;;;;;80.20;45.45;;;;;;;13.13;58.20;100019.76;1735785;81;21080;-81
2021/10/12 07:05:00;;;;;;;79.03;43.55;;;;;;;13.54;57.53;100015.54;1740368;81;21136;-80
2021/10/12 07:07:27;;;;;;;67.67;39.83;;;;;;;13.89;54.03;100004.91;1745219;81;21101;-81
2021/10/12 07:09:53;;;;;;;68.20;39.75;;;;;;;14.06;54.02;100008.86;1739910;81;21097;-81
2021/10/12 07:12:20;;;;;;;63.33;36.35;;;;;;;14.43;51.57;100002.89;1743365;81;22113;-81
2021/10/12 07:14:46;;;;;;;65.00;38.28;;;;;;;14.58;53.14;100008.31;1738518;81;21048;-81
2021/10/12 07:17:12;;;;;;;64.37;37.08;;;;;;;14.79;51.20;100010.22;1746802;81;21041;-81
2021/10/12 07:19:39;;;;;;;64.90;36.28;;;;;;;14.97;51.04;100000.37;1740152;81;21187;-82
2021/10/12 07:22:05;;;;;;;65.92;35.52;;;;;;;15.22;50.63;100007.30;1744392;81;21021;-83
2021/10/12 07:24:32;;;;;;;63.92;35.73;;;;;;;15.47;50.40;100008.52;1728238;81;21037;-81
2021/10/12 07:26:58;;;;;;;64.53;34.85;;;;;;;15.73;49.61;100005.20;1748711;81;21041;-82
2021/10/12 07:29:25;;;;;;;67.45;35.83;;;;;;;16.11;46.69;99995.35;1756399;81;21068;-82
2021/10/12 07:31:51;;;;;;;51.18;31.60;;;;;;;16.42;47.06;99996.55;1752287;81;21124;-82
2021/10/12 07:34:18;;;;;;;53.13;32.85;;;;;;;16.80;44.64;99988.81;1749947;81;21053;-83
2021/10/12 07:36:44;;;;;;;52.73;30.92;;;;;;;17.20;42.74;99987.50;1734955;82;21053;-84
2021/10/12 07:39:11;;;;;;;58.08;33.63;;;;;;;17.37;41.10;99979.25;1736469;81;21550;-87
2021/10/12 07:41:37;;;;;;;46.23;26.90;;;;;;;17.53;41.51;99975.07;1751875;81;21045;-88
2021/10/12 07:44:05;;;;;;;50.55;29.70;;;;;;;17.64;40.34;99974.31;1739188;82;21118;-83
2021/10/12 07:46:32;;;;;;;47.20;29.27;;;;;;;17.90;40.15;99974.34;1729797;82;21049;-81
2021/10/12 07:48:59;;;;;;;52.65;30.37;;;;;;;18.19;39.08;99966.48;1743435;80;21045;-83
2021/10/12 07:51:27;;;;;;;48.40;29.87;;;;;;;18.32;38.77;99968.28;1732382;82;21097;-78
2021/10/12 07:53:56;;;;;;;47.17;29.32;;;;;;;18.61;39.21;99971.48;1727089;82;21465;-79
2021/10/12 07:56:38;;;;;;;49.58;29.55;;;;;;;19.22;38.93;99974.14;1737312;82;21145;-80
2021/10/12 07:59:06;;;;;;;46.05;29.77;;;;;;;19.88;36.61;99961.93;1753938;80;21026;-78
2021/10/12 08:01:34;;;;;;;46.60;29.48;;;;;;;20.10;36.02;99953.05;1757119;80;21069;-79
2021/10/12 08:04:01;;;;;;;45.33;26.52;;;;;;;20.37;35.83;99945.63;1763684;80;21021;-84
2021/10/12 08:06:28;;;;;;;50.73;29.00;;;;;;;20.68;35.36;99947.54;1733515;80;21065;-80
2021/10/12 08:08:55;;;;;;;41.40;26.37;;;;;;;20.97;34.21;99944.27;1738400;82;21908;-80
2021/10/12 08:11:25;;;;;;;42.15;27.10;;;;;;;21.16;34.03;99944.91;1728365;82;21018;-81
2021/10/12 08:14:02;;;;;;;50.25;27.73;;;;;;;21.36;33.81;99941.89;1751380;81;21074;-81
2021/10/12 08:16:30;;;;;;;42.62;25.90;;;;;;;21.53;32.63;99933.30;1763471;81;21062;-81
2021/10/12 08:19:03;;;;;;;43.38;24.23;;;;;;;21.81;33.06;99929.57;1764814;81;21034;-78
2021/10/12 08:21:30;;;;;;;43.40;25.75;;;;;;;22.13;31.49;99919.16;1750526;81;21977;-81
2021/10/12 08:23:58;;;;;;;44.40;24.60;;;;;;;22.09;31.75;99912.40;1746162;82;21057;-80
2021/10/12 08:26:27;;;;;;;36.98;22.73;;;;;;;22.18;30.87;99904.88;1726746;82;21079;-81
2021/10/12 08:28:55;;;;;;;46.20;22.77;;;;;;;22.19;30.49;99905.22;1737361;82;21596;-81
2021/10/12 08:31:21;;;;;;;40.88;23.75;;;;;;;22.28;31.08;99903.09;1725646;82;21064;-79
2021/10/12 08:33:48;;;;;;;31.70;21.70;;;;;;;22.30;30.80;99898.44;1737094;82;21151;-79
2021/10/12 08:36:15;;;;;;;38.15;21.68;;;;;;;22.49;30.14;99896.27;1735272;82;21018;-79
2021/10/12 08:38:43;;;;;;;32.08;20.12;;;;;;;22.52;29.54;99888.44;1736822;80;21031;-79
2021/10/12 08:41:10;;;;;;;35.15;21.70;;;;;;;22.46;29.96;99893.87;1773659;80;21084;-78
2021/10/12 08:43:38;;;;;;;31.75;20.27;;;;;;;22.46;30.13;99884.98;1770562;80;21077;-79
2021/10/12 08:46:06;;;;;;;28.67;17.52;;;;;;;22.62;30.84;99887.97;1764373;80;21057;-79
2021/10/12 08:48:34;;;;;;;26.55;17.27;;;;;;;22.51;29.25;99886.75;1747271;80;21553;-78
2021/10/12 08:51:02;;;;;;;31.97;19.02;;;;;;;22.44;30.33;99882.93;1748199;80;21330;-78
2021/10/12 08:53:30;;;;;;;31.65;18.10;;;;;;;22.48;30.10;99883.02;1750398;80;21064;-78
2021/10/12 08:55:58;;;;;;;26.12;17.40;;;;;;;22.60;29.25;99881.89;1745414;80;21078;-80
2021/10/12 08:58:25;;;;;;;35.90;17.98;;;;;;;22.73;29.66;99879.78;1744367;80;21746;-77
2021/10/12 09:01:14;;;;;;;31.90;17.62;;;;;;;23.06;29.19;99874.98;1744623;80;21035;-77
2021/10/12 09:06:45;;;;;;;27.48;17.85;;;;;;;22.81;28.65;99869.17;1713914;83;20986;-95
2021/10/12 09:09:15;;;;;;;29.55;17.40;;;;;;;22.66;29.32;99869.27;1681393;84;21046;-80
2021/10/12 09:11:43;;;;;;;28.98;17.65;;;;;;;22.75;29.26;99865.73;1726788;82;21510;-79
2021/10/12 09:14:12;;;;;;;29.32;17.73;;;;;;;22.76;30.14;99867.41;1764408;81;21053;-78
2021/10/12 09:16:45;;;;;;;30.45;17.92;;;;;;;22.93;29.43;99856.94;1764330;81;21523;-79
2021/10/12 09:19:15;;;;;;;28.03;18.07;;;;;;;22.96;28.61;99849.46;1742172;81;21122;-73
2021/10/12 09:21:47;;;;;;;29.37;17.92;;;;;;;22.41;29.37;99847.84;1775218;79;21111;-71
2021/10/12 09:24:21;;;;;;;32.23;18.25;;;;;;;22.16;30.09;99845.16;1771412;79;21124;-74
2021/10/12 09:26:54;;;;;;;32.73;16.42;;;;;;;22.13;30.17;99852.12;1757677;80;21046;-73
2021/10/12 09:29:29;;;;;;;26.27;16.00;;;;;;;22.23;29.83;99846.33;1762896;80;21551;-73
2021/10/12 09:31:54;;;;;;;29.67;16.35;;;;;;;22.24;30.29;99840.46;1764884;80;21064;-73
2021/10/12 09:34:22;;;;;;;28.42;16.95;;;;;;;22.50;29.98;99842.98;1770686;80;21106;-75
2021/10/12 09:36:51;;;;;;;31.87;16.48;;;;;;;22.48;29.81;99832.03;1772089;80;21125;-74
2021/10/12 09:39:46;;;;;;;25.35;15.23;;;;;;;22.34;29.90;99827.43;1772030;80;21043;-73
2021/10/12 09:42:20;;;;;;;28.52;16.37;;;;;;;22.50;30.14;99828.69;1772571;80;21034;-72
2021/10/12 09:44:57;;;;;;;24.98;13.90;;;;;;;22.76;29.90;99817.75;1771089;80;21077;-73
2021/10/12 09:47:27;;;;;;;20.35;13.88;;;;;;;22.67;29.49;99825.31;1768332;79;21042;-73
2021/10/12 09:50:14;;;;;;;21.97;14.38;;;;;;;22.23;30.01;99816.83;1776296;79;21120;-72
2021/10/12 09:52:47;;;;;;;25.27;14.83;;;;;;;22.02;30.06;99813.35;1773715;79;21035;-72
2021/10/12 09:55:15;;;;;;;26.95;16.27;;;;;;;21.94;30.53;99806.00;1771024;80;21093;-73
2021/10/12 09:57:41;;;;;;;33.58;18.40;;;;;;;21.81;30.70;99797.36;1765973;80;21589;-75
2021/10/12 10:00:10;;;;;;;25.55;15.43;;;;;;;21.71;31.08;99790.64;1757336;80;21099;-73
2021/10/12 10:02:39;;;;;;;;;;;;;;;21.67;31.53;99787.87;1750564;81;21085;-72
2021/10/12 10:05:07;;;;;;;30.05;16.75;;;;;;;21.82;31.02;99781.15;1767087;81;20217;-74
2021/10/12 10:07:42;;;;;;;24.37;13.85;;;;;;;21.84;31.34;99781.86;1762494;81;21067;-72
2021/10/12 10:10:10;;;;;;;17.12;12.60;;;;;;;21.37;31.81;99781.52;1758881;80;21007;-73
2021/10/12 10:12:38;;;;;;;24.30;13.75;;;;;;;21.36;32.77;99773.14;1760570;80;21088;-75
2021/10/12 10:15:07;;;;;;;25.27;11.28;;;;;;;21.18;32.36;99777.43;1761635;80;21132;-73
2021/10/12 10:17:34;;;;;;;17.10;9.75;;;;;;;20.75;33.34;99767.23;1762232;80;21069;-73
2021/10/12 10:20:09;;;;;;;22.17;9.55;;;;;;;20.33;33.45;99757.33;1762066;80;21580;-73
2021/10/12 10:22:44;;;;;;;26.80;13.98;;;;;;;19.90;34.42;99767.58;1761881;80;21077;-74
2021/10/12 10:25:34;;;;;;;18.42;12.10;;;;;;;19.58;34.82;99763.94;1752553;79;21027;-73
2021/10/12 10:28:23;;;;;;;19.57;13.65;;;;;;;19.28;35.37;99764.11;1751868;80;21089;-74
2021/10/12 10:30:55;;;;;;;24.63;12.53;;;;;;;19.18;35.99;99757.78;1758791;80;21096;-73
2021/10/12 10:33:34;;;;;;;23.52;13.50;;;;;;;19.01;36.14;99763.96;1755325;80;21345;-73
2021/10/12 10:36:05;;;;;;;25.72;13.03;;;;;;;18.75;36.58;99766.41;1751372;81;21075;-73
2021/10/12 10:38:42;;;;;;;25.60;12.63;;;;;;;18.47;37.69;99741.86;1753948;81;21095;-73
2021/10/12 10:41:13;;;;;;;25.12;12.75;;;;;;;18.40;37.72;99752.16;1756510;81;21143;-72
2021/10/12 10:44:00;;;;;;;20.48;12.70;;;;;;;18.36;38.33;99755.18;1756641;81;21048;-72
2021/10/12 10:46:36;;;;;;;21.27;11.78;;;;;;;18.19;38.34;99754.59;1756337;81;21263;-73
2021/10/12 10:49:21;;;;;;;18.62;10.70;;;;;;;17.98;38.51;99745.55;1757113;81;21083;-73
2021/10/12 10:52:02;;;;;;;28.17;13.53;;;;;;;17.66;39.41;99750.05;1757073;81;21062;-73
2021/10/12 10:54:47;;;;;;;19.77;11.93;;;;;;;17.49;40.10;99749.09;1760160;81;21118;-72
2021/10/12 10:57:19;;;;;;;30.30;12.68;;;;;;;17.27;40.59;99747.95;1746051;79;21036;-73
2021/10/12 11:00:15;;;;;;;30.02;13.98;;;;;;;17.22;41.10;99744.77;1759761;81;21068;-73
2021/10/12 11:02:46;;;;;;;31.80;13.53;;;;;;;17.25;41.16;99739.70;1761299;79;21047;-72
2021/10/12 11:05:40;;;;;;;22.05;11.73;;;;;;;17.19;41.25;99729.03;1767134;79;21123;-73
2021/10/12 11:08:20;;;;;;;21.15;12.05;;;;;;;17.10;40.79;99727.02;1741033;81;21177;-72
2021/10/12 11:10:58;;;;;;;17.92;11.68;;;;;;;17.07;42.57;99733.87;1753015;81;20985;-72
2021/10/12 11:13:39;;;;;;;22.10;12.50;;;;;;;16.91;42.32;99732.75;1760775;81;21541;-73
2021/10/12 11:16:08;;;;;;;;;;;;;;;16.74;42.84;99724.59;1776596;80;21234;-73
2021/10/12 11:18:37;;;;;;;18.50;10.75;;;;;;;16.62;42.62;99722.30;1767801;80;20507;-74
2021/10/12 11:21:06;;;;;;;27.20;11.75;;;;;;;16.46;42.71;99723.83;1762764;81;21234;-75
2021/10/12 11:23:40;;;;;;;28.10;12.30;;;;;;;16.16;43.38;99721.43;1745885;81;21058;-75
2021/10/12 11:26:13;;;;;;;23.00;12.20;;;;;;;15.91;44.34;99723.53;1761710;79;22129;-76
2021/10/12 11:30:51;;;;;;;32.53;11.85;;;;;;;15.74;45.05;99718.00;1788568;79;23235;-74
2021/10/12 11:33:31;;;;;;;20.00;12.25;;;;;;;15.70;45.19;99718.66;1743786;81;20981;-75